Time;durP1;ratioP1;P1;durP2;ratioP2;P2;SDS_P1;SDS_P2;PMS_P1;PMS_P2;Temp;Humidity;BMP_temperature;BMP_pressure;BME280_temperature;BME280_humidity;BME280_pressure;Samples;Min_cycle;Max_cycle;Signal;HPM_P1;HPM_P2
2022/10/20 00:00:51;;;;;;;1.23;0.85;;;8.80;88.50;;;;;;6124076;23;20420;-80
2022/10/20 00:03:16;;;;;;;1.40;0.57;;;8.80;88.60;;;;;;6050215;23;19998;-80
2022/10/20 00:05:42;;;;;;;0.93;0.70;;;8.70;88.50;;;;;;6074480;23;20331;-80
2022/10/20 00:08:08;;;;;;;1.27;0.85;;;8.80;88.60;;;;;;6098902;23;20006;-80
2022/10/20 00:10:33;;;;;;;0.73;0.60;;;8.80;88.60;;;;;;6124400;23;20005;-79
2022/10/20 00:12:59;;;;;;;0.60;0.60;;;8.70;88.60;;;;;;6096645;23;20013;-80
2022/10/20 00:15:25;;;;;;;0.55;0.55;;;8.70;88.60;;;;;;6124427;23;20077;-80
2022/10/20 00:17:51;;;;;;;1.52;0.80;;;8.70;88.60;;;;;;6097193;23;20043;-80
2022/10/20 00:20:16;;;;;;;0.70;0.68;;;8.80;88.70;;;;;;6098307;23;20054;-80
2022/10/20 00:22:42;;;;;;;0.90;0.60;;;8.70;88.60;;;;;;6123959;23;20005;-80
2022/10/20 00:25:08;;;;;;;1.05;0.68;;;8.70;88.70;;;;;;6094733;23;20005;-79
2022/10/20 00:27:34;;;;;;;1.65;0.80;;;8.60;88.70;;;;;;6124683;23;20454;-81
2022/10/20 00:30:00;;;;;;;0.77;0.70;;;8.70;88.70;;;;;;6098647;23;20014;-80
2022/10/20 00:32:26;;;;;;;1.52;0.57;;;8.70;88.70;;;;;;6124389;23;20330;-80
2022/10/20 00:34:52;;;;;;;1.15;0.70;;;8.70;88.70;;;;;;6097150;23;20104;-80
2022/10/20 00:37:17;;;;;;;0.77;0.60;;;8.70;88.70;;;;;;6098009;23;20097;-80
2022/10/20 00:39:43;;;;;;;1.08;0.80;;;8.70;88.70;;;;;;6092883;23;20375;-80
2022/10/20 00:42:15;;;;;;;0.82;0.63;;;8.60;88.70;;;;;;6097869;23;20009;-80
2022/10/20 00:44:53;;;;;;;0.98;0.70;;;8.60;88.80;;;;;;6098237;23;20009;-79
2022/10/20 00:47:41;;;;;;;0.75;0.68;;;8.60;89.40;;;;;;6124299;23;20117;-79
2022/10/20 00:50:16;;;;;;;0.88;0.73;;;8.60;88.80;;;;;;6123691;23;20013;-80
2022/10/20 00:52:44;;;;;;;1.08;0.60;;;8.60;88.80;;;;;;6124476;23;20026;-79
2022/10/20 00:55:14;;;;;;;0.65;0.60;;;8.60;88.80;;;;;;6124124;23;20431;-80
2022/10/20 00:57:43;;;;;;;0.73;0.60;;;8.60;88.80;;;;;;6123789;23;20010;-80
2022/10/20 01:00:09;;;;;;;1.15;0.73;;;8.60;88.90;;;;;;6090251;23;20006;-80
2022/10/20 01:02:35;;;;;;;1.02;0.70;;;8.60;89.00;;;;;;6094807;23;19998;-79
2022/10/20 01:05:01;;;;;;;0.65;0.45;;;8.50;89.00;;;;;;6095484;23;19998;-79
2022/10/20 01:07:27;;;;;;;0.30;0.30;;;8.60;89.00;;;;;;6069272;23;20443;-79
2022/10/20 01:09:54;;;;;;;0.57;0.55;;;8.50;89.00;;;;;;6069794;23;20121;-80
2022/10/20 01:12:52;;;;;;;0.90;0.70;;;8.50;89.00;;;;;;6094550;23;20002;-80
2022/10/20 01:15:33;;;;;;;0.68;0.57;;;8.50;89.10;;;;;;6094844;23;20439;-80
2022/10/20 01:18:10;;;;;;;0.50;0.43;;;8.40;89.00;;;;;;6094571;23;20007;-79
2022/10/20 01:21:15;;;;;;;0.57;0.57;;;8.50;89.10;;;;;;6093112;23;20360;-80
2022/10/20 01:24:09;;;;;;;0.68;0.68;;;8.50;89.10;;;;;;6093671;23;20101;-79
2022/10/20 01:26:51;;;;;;;0.50;0.50;;;8.50;89.10;;;;;;6092712;23;20023;-80
2022/10/20 01:29:50;;;;;;;0.60;0.43;;;8.40;89.10;;;;;;6092314;23;20462;-80
2022/10/20 01:32:50;;;;;;;0.55;0.55;;;8.40;89.10;;;;;;6094425;23;20009;-80
2022/10/20 01:35:31;;;;;;;0.88;0.57;;;8.40;89.20;;;;;;6092753;23;20506;-80
2022/10/20 01:38:13;;;;;;;0.85;0.73;;;8.40;89.20;;;;;;6100440;23;20059;-79
2022/10/20 01:40:59;;;;;;;1.50;0.70;;;8.30;89.10;;;;;;6097488;23;20013;-79
2022/10/20 01:43:29;;;;;;;1.40;0.75;;;8.40;89.30;;;;;;6123773;23;20056;-80
2022/10/20 01:45:57;;;;;;;1.05;0.60;;;8.30;89.20;;;;;;6097671;23;20006;-80
2022/10/20 01:48:28;;;;;;;0.75;0.65;;;8.40;89.30;;;;;;6098471;23;20315;-79
2022/10/20 01:50:54;;;;;;;1.38;0.70;;;8.40;89.30;;;;;;6098149;23;20002;-80
2022/10/20 01:53:20;;;;;;;1.05;0.60;;;8.30;89.30;;;;;;6090571;23;19998;-80
2022/10/20 01:55:50;;;;;;;0.70;0.65;;;8.20;89.30;;;;;;6093179;23;20010;-80
2022/10/20 01:58:42;;;;;;;0.85;0.60;;;8.30;89.40;;;;;;6094835;23;20045;-80
2022/10/20 02:01:21;;;;;;;1.02;0.75;;;8.30;89.40;;;;;;6092430;23;20013;-79
2022/10/20 02:03:58;;;;;;;0.93;0.80;;;8.30;89.40;;;;;;6093547;23;20003;-79
2022/10/20 02:06:42;;;;;;;1.05;0.88;;;8.30;89.50;;;;;;6093213;23;20049;-79
2022/10/20 02:09:16;;;;;;;0.80;0.60;;;8.30;89.50;;;;;;6092441;23;20436;-80
2022/10/20 02:11:58;;;;;;;1.33;0.80;;;8.20;89.40;;;;;;6089279;23;20339;-79
2022/10/20 02:14:24;;;;;;;1.38;0.90;;;8.20;89.40;;;;;;6092239;23;20441;-79
2022/10/20 02:16:56;;;;;;;0.80;0.70;;;8.30;89.50;;;;;;6094204;23;20017;-79
2022/10/20 02:19:28;;;;;;;1.25;0.88;;;8.30;89.50;;;;;;6094003;23;20007;-80
2022/10/20 02:21:56;;;;;;;0.75;0.57;;;8.30;89.50;;;;;;6092820;23;20059;-80
2022/10/20 02:24:27;;;;;;;0.95;0.75;;;8.20;89.40;;;;;;6068760;23;19999;-80
2022/10/20 02:26:56;;;;;;;0.98;0.63;;;8.20;89.40;;;;;;6092388;23;20002;-80
2022/10/20 02:29:27;;;;;;;0.57;0.57;;;8.30;89.50;;;;;;6094206;23;20065;-80
2022/10/20 02:31:54;;;;;;;1.13;0.60;;;8.30;89.50;;;;;;6100249;23;20006;-80
2022/10/20 02:34:19;;;;;;;1.40;0.90;;;8.20;89.50;;;;;;6096471;23;20013;-78
2022/10/20 02:36:45;;;;;;;1.48;0.70;;;8.30;89.50;;;;;;6095478;23;20401;-79
2022/10/20 02:39:12;;;;;;;1.00;0.80;;;8.30;89.50;;;;;;6067874;23;20336;-79
2022/10/20 02:41:37;;;;;;;0.75;0.75;;;8.30;89.50;;;;;;6123046;23;19998;-80
2022/10/20 02:44:04;;;;;;;0.85;0.70;;;8.30;89.50;;;;;;6124259;23;20009;-79
2022/10/20 02:46:29;;;;;;;1.10;0.70;;;8.30;89.50;;;;;;6099196;23;20016;-79
2022/10/20 02:48:55;;;;;;;1.75;0.88;;;8.20;89.50;;;;;;6125128;23;20084;-80
2022/10/20 02:51:21;;;;;;;1.35;0.88;;;8.30;89.60;;;;;;6098700;23;20328;-80
2022/10/20 02:53:48;;;;;;;0.77;0.65;;;8.30;89.60;;;;;;6125035;23;20065;-80
2022/10/20 02:56:14;;;;;;;2.22;0.70;;;8.20;89.50;;;;;;6098843;23;20025;-80
2022/10/20 02:58:40;;;;;;;1.00;0.80;;;8.30;89.60;;;;;;6099155;23;20364;-79
2022/10/20 03:01:05;;;;;;;1.02;0.77;;;8.20;89.60;;;;;;6098515;23;20030;-80
2022/10/20 03:03:31;;;;;;;0.75;0.63;;;8.20;89.60;;;;;;6124959;23;19998;-80
2022/10/20 03:05:57;;;;;;;1.10;0.82;;;8.20;89.60;;;;;;6096316;23;20431;-80
2022/10/20 03:08:23;;;;;;;1.17;0.70;;;8.20;89.60;;;;;;6124873;23;20024;-79
2022/10/20 03:10:48;;;;;;;1.25;0.63;;;8.20;89.70;;;;;;6098361;23;20057;-80
2022/10/20 03:13:14;;;;;;;0.52;0.50;;;8.20;89.70;;;;;;6096479;23;20062;-80
2022/10/20 03:15:40;;;;;;;0.75;0.68;;;8.20;89.70;;;;;;6124680;23;20438;-80
2022/10/20 03:18:06;;;;;;;1.05;0.65;;;8.20;89.70;;;;;;6097295;23;20113;-79
2022/10/20 03:20:32;;;;;;;0.57;0.52;;;8.20;89.70;;;;;;6096497;23;20010;-80
2022/10/20 03:22:58;;;;;;;0.75;0.63;;;8.20;89.70;;;;;;6099358;23;20010;-80
2022/10/20 03:25:24;;;;;;;0.40;0.40;;;8.20;89.70;;;;;;6095721;23;20093;-80
2022/10/20 03:27:50;;;;;;;0.68;0.50;;;8.30;89.80;;;;;;6097244;23;20112;-79
2022/10/20 03:30:16;;;;;;;0.75;0.70;;;8.20;89.80;;;;;;6097425;23;20042;-80
2022/10/20 03:32:42;;;;;;;0.50;0.50;;;8.20;89.80;;;;;;6124970;23;19998;-80
2022/10/20 03:35:08;;;;;;;0.90;0.80;;;8.20;89.90;;;;;;6124543;23;20081;-80
2022/10/20 03:37:37;;;;;;;0.95;0.70;;;8.10;89.80;;;;;;6069449;23;20454;-79
2022/10/20 03:40:03;;;;;;;1.20;0.60;;;8.20;89.80;;;;;;6093442;23;20336;-80
2022/10/20 03:42:29;;;;;;;0.65;0.60;;;8.10;89.80;;;;;;6095725;23;20007;-79
2022/10/20 03:44:54;;;;;;;0.52;0.52;;;8.20;89.90;;;;;;6095767;23;20420;-80
2022/10/20 03:47:20;;;;;;;1.30;0.80;;;8.10;89.90;;;;;;6093805;23;20007;-80
2022/10/20 03:49:46;;;;;;;0.40;0.40;;;8.10;89.90;;;;;;6094155;23;20010;-79
2022/10/20 03:52:11;;;;;;;0.75;0.68;;;8.10;89.90;;;;;;6095069;23;20085;-80
2022/10/20 03:54:39;;;;;;;0.75;0.60;;;8.10;89.90;;;;;;6094916;23;20363;-80
2022/10/20 03:57:05;;;;;;;0.95;0.70;;;8.10;89.90;;;;;;6069570;23;20014;-80
2022/10/20 03:59:31;;;;;;;1.30;0.80;;;8.20;90.00;;;;;;6069870;23;20094;-80
2022/10/20 04:01:57;;;;;;;0.50;0.50;;;8.10;89.90;;;;;;6093508;23;20080;-79
2022/10/20 04:04:22;;;;;;;0.98;0.60;;;8.10;89.90;;;;;;6095260;23;20009;-79
2022/10/20 04:06:48;;;;;;;1.77;0.73;;;8.10;89.90;;;;;;6094399;23;20045;-79
2022/10/20 04:09:14;;;;;;;0.80;0.80;;;8.10;89.90;;;;;;6095991;23;20034;-79
2022/10/20 04:11:40;;;;;;;1.02;0.75;;;8.10;89.90;;;;;;6094300;23;20420;-80
2022/10/20 04:14:05;;;;;;;1.25;0.95;;;8.10;89.90;;;;;;6095632;23;20003;-78
2022/10/20 04:16:31;;;;;;;0.93;0.80;;;8.00;89.80;;;;;;6069104;23;20017;-79
2022/10/20 04:18:57;;;;;;;0.70;0.70;;;8.10;89.90;;;;;;6098327;23;20028;-80
2022/10/20 04:21:24;;;;;;;0.85;0.57;;;8.20;89.90;;;;;;6097182;23;20412;-80
2022/10/20 04:23:50;;;;;;;0.70;0.60;;;8.10;89.90;;;;;;6125336;23;20006;-79
2022/10/20 04:26:16;;;;;;;0.80;0.77;;;8.20;89.90;;;;;;6124736;23;20013;-80
2022/10/20 04:28:42;;;;;;;1.13;0.80;;;8.10;89.90;;;;;;6074268;23;20002;-81
2022/10/20 04:31:08;;;;;;;0.40;0.40;;;8.20;89.90;;;;;;6096195;23;20035;-80
2022/10/20 04:33:34;;;;;;;0.50;0.50;;;8.20;89.90;;;;;;6124315;23;20009;-80
2022/10/20 04:36:03;;;;;;;0.90;0.60;;;8.20;89.90;;;;;;6124395;23;20010;-80
2022/10/20 04:38:30;;;;;;;0.70;0.70;;;8.20;89.90;;;;;;6124949;23;20013;-80
2022/10/20 04:40:57;;;;;;;1.15;0.70;;;8.20;89.90;;;;;;6099671;23;20010;-80
2022/10/20 04:43:23;;;;;;;0.88;0.77;;;8.10;89.80;;;;;;6051339;23;20002;-80
2022/10/20 04:45:50;;;;;;;1.48;0.68;;;8.20;89.90;;;;;;6074652;23;20032;-80
2022/10/20 04:48:16;;;;;;;0.60;0.52;;;8.20;89.90;;;;;;6097795;23;20002;-81
2022/10/20 04:50:42;;;;;;;0.63;0.60;;;8.20;89.80;;;;;;6098389;23;20397;-81
2022/10/20 04:53:08;;;;;;;1.27;0.70;;;8.20;89.80;;;;;;6124723;23;20001;-81
2022/10/20 04:55:35;;;;;;;0.55;0.55;;;8.30;89.90;;;;;;6098973;23;20426;-81
2022/10/20 04:58:00;;;;;;;0.70;0.57;;;8.40;90.00;;;;;;6096955;23;20458;-81
2022/10/20 05:00:26;;;;;;;0.73;0.50;;;8.30;89.90;;;;;;6096335;23;20007;-81
2022/10/20 05:02:53;;;;;;;0.60;0.50;;;8.30;89.90;;;;;;6124217;23;20473;-81
2022/10/20 05:05:19;;;;;;;0.57;0.57;;;8.40;90.00;;;;;;6049860;23;20032;-81
2022/10/20 05:07:45;;;;;;;1.90;0.77;;;8.30;89.90;;;;;;6098493;23;20431;-80
2022/10/20 05:10:10;;;;;;;0.90;0.70;;;8.40;90.00;;;;;;6050563;23;20002;-81
2022/10/20 05:12:36;;;;;;;0.60;0.60;;;8.30;89.90;;;;;;6070593;23;20005;-81
2022/10/20 05:15:02;;;;;;;0.50;0.40;;;8.40;89.90;;;;;;6096595;23;20006;-80
2022/10/20 05:17:28;;;;;;;1.13;0.70;;;8.30;89.90;;;;;;6098003;23;20010;-80
2022/10/20 05:19:54;;;;;;;1.50;0.82;;;8.40;90.00;;;;;;6095932;23;20006;-81
2022/10/20 05:22:20;;;;;;;0.63;0.52;;;8.40;89.90;;;;;;6051552;23;20017;-86
2022/10/20 05:24:46;;;;;;;0.55;0.55;;;8.40;89.90;;;;;;6057026;23;20019;-82
2022/10/20 05:27:15;;;;;;;0.40;0.40;;;8.40;89.90;;;;;;6052052;23;20022;-84
2022/10/20 05:29:41;;;;;;;0.70;0.60;;;8.40;89.90;;;;;;6085848;23;20030;-80
2022/10/20 05:32:09;;;;;;;1.00;0.60;;;8.40;89.90;;;;;;6063048;23;20467;-82
2022/10/20 05:34:35;;;;;;;0.75;0.60;;;8.40;89.90;;;;;;6087447;23;20010;-82
2022/10/20 05:37:01;;;;;;;0.63;0.63;;;8.50;89.90;;;;;;6063237;23;20360;-82
2022/10/20 05:39:27;;;;;;;0.90;0.70;;;8.40;89.90;;;;;;6062768;23;20006;-82
2022/10/20 05:41:53;;;;;;;1.00;0.68;;;8.40;89.90;;;;;;6084106;23;20046;-81
2022/10/20 05:44:18;;;;;;;0.80;0.75;;;8.40;89.90;;;;;;6111425;23;20010;-83
2022/10/20 05:46:44;;;;;;;1.02;0.77;;;8.50;90.00;;;;;;6086034;23;20015;-82
2022/10/20 05:49:13;;;;;;;1.30;0.65;;;8.50;90.00;;;;;;6107860;23;20471;-81
2022/10/20 05:51:38;;;;;;;1.10;0.68;;;8.40;89.90;;;;;;6108663;23;20014;-81
2022/10/20 05:54:04;;;;;;;0.85;0.80;;;8.50;90.00;;;;;;6110212;23;20010;-81
2022/10/20 05:56:31;;;;;;;0.60;0.60;;;8.50;90.00;;;;;;6109780;23;20021;-81
2022/10/20 05:58:57;;;;;;;0.50;0.50;;;8.50;90.00;;;;;;6106792;23;20071;-81
2022/10/20 06:01:25;;;;;;;1.00;0.80;;;8.50;90.00;;;;;;6107396;23;20002;-81
2022/10/20 06:03:56;;;;;;;0.80;0.68;;;8.50;90.00;;;;;;6108167;23;20412;-81
2022/10/20 06:06:23;;;;;;;;;;;8.50;90.30;;;;;;6136794;23;20057;-81
2022/10/20 06:08:50;;;;;;;0.63;0.60;;;8.50;90.00;;;;;;6111047;23;19908;-81
2022/10/20 06:11:17;;;;;;;1.30;0.63;;;8.50;90.30;;;;;;6109658;23;20061;-81
2022/10/20 06:13:46;;;;;;;1.05;0.73;;;8.50;90.00;;;;;;6112014;23;20434;-81
2022/10/20 06:16:16;;;;;;;0.65;0.65;;;8.50;90.00;;;;;;6138385;23;20018;-81
2022/10/20 06:18:42;;;;;;;0.82;0.70;;;8.40;90.30;;;;;;6110661;23;20497;-82
2022/10/20 06:21:48;;;;;;;0.70;0.70;;;8.50;90.00;;;;;;6128777;23;20025;-84
2022/10/20 06:24:15;;;;;;;0.80;0.70;;;8.50;90.00;;;;;;6074687;23;20105;-83
2022/10/20 06:26:42;;;;;;;0.90;0.65;;;8.50;90.00;;;;;;6068299;23;20021;-83
2022/10/20 06:29:11;;;;;;;0.60;0.60;;;8.60;90.00;;;;;;6097875;23;20368;-83
2022/10/20 06:31:42;;;;;;;0.90;0.60;;;8.60;90.00;;;;;;6096698;23;20045;-83
2022/10/20 06:34:12;;;;;;;1.20;0.70;;;8.60;90.00;;;;;;6095144;23;20102;-83
2022/10/20 06:36:39;;;;;;;0.95;0.68;;;8.60;90.00;;;;;;6099335;23;20010;-83
2022/10/20 06:39:06;;;;;;;0.60;0.60;;;8.60;90.00;;;;;;6093060;23;20343;-83
2022/10/20 06:41:33;;;;;;;0.93;0.63;;;8.60;90.00;;;;;;6096055;23;20014;-83
2022/10/20 06:43:59;;;;;;;0.57;0.57;;;8.60;90.00;;;;;;6068926;23;20482;-84
2022/10/20 06:46:30;;;;;;;0.50;0.50;;;8.70;90.00;;;;;;6093774;23;20018;-85
2022/10/20 06:49:00;;;;;;;2.28;0.80;;;8.70;90.00;;;;;;6039502;23;20344;-81
2022/10/20 06:51:26;;;;;;;0.85;0.60;;;8.70;90.00;;;;;;6061369;23;20015;-82
2022/10/20 06:53:52;;;;;;;0.60;0.60;;;8.70;90.00;;;;;;6040559;23;20054;-81
2022/10/20 06:56:20;;;;;;;1.33;0.90;;;8.80;90.00;;;;;;6064216;23;20027;-82
2022/10/20 06:58:47;;;;;;;1.38;0.82;;;8.80;90.30;;;;;;6040567;23;20014;-82
2022/10/20 07:01:16;;;;;;;1.13;1.00;;;8.80;90.00;;;;;;6064204;23;20017;-82
2022/10/20 07:03:45;;;;;;;0.88;0.68;;;8.80;90.00;;;;;;6061280;23;20114;-82
2022/10/20 07:06:14;;;;;;;1.17;0.80;;;8.90;90.00;;;;;;6065383;23;20019;-81
2022/10/20 07:08:40;;;;;;;1.00;0.80;;;8.90;89.90;;;;;;6058826;23;20019;-82
2022/10/20 07:11:10;;;;;;;0.90;0.80;;;8.90;89.80;;;;;;6058844;23;20049;-82
2022/10/20 07:13:36;;;;;;;0.73;0.60;;;9.00;89.80;;;;;;6041098;23;20380;-83
2022/10/20 07:16:04;;;;;;;0.60;0.60;;;9.00;89.80;;;;;;6060584;23;20014;-82
2022/10/20 07:18:30;;;;;;;0.70;0.70;;;9.20;89.90;;;;;;6064430;23;20021;-82
2022/10/20 07:20:59;;;;;;;1.10;0.80;;;9.00;89.70;;;;;;6093696;23;20007;-82
2022/10/20 07:23:27;;;;;;;0.80;0.60;;;9.10;89.70;;;;;;6070454;23;20002;-82
2022/10/20 07:26:00;;;;;;;1.02;0.68;;;9.20;89.70;;;;;;6070058;23;20050;-82
2022/10/20 07:28:26;;;;;;;1.50;0.88;;;9.20;89.70;;;;;;6095706;23;20002;-82
2022/10/20 07:30:51;;;;;;;1.38;0.80;;;9.30;89.70;;;;;;6094031;23;20061;-82
2022/10/20 07:33:17;;;;;;;0.70;0.60;;;9.30;89.60;;;;;;6090984;23;20026;-82
2022/10/20 07:35:43;;;;;;;1.00;0.80;;;9.30;89.60;;;;;;6070393;23;20013;-82
2022/10/20 07:38:08;;;;;;;0.90;0.77;;;9.30;89.60;;;;;;6046292;23;20018;-82
2022/10/20 07:40:34;;;;;;;0.90;0.70;;;9.30;89.60;;;;;;6070243;23;20013;-82
2022/10/20 07:43:00;;;;;;;0.60;0.60;;;9.40;89.60;;;;;;6070372;23;20357;-82
2022/10/20 07:45:26;;;;;;;1.17;0.70;;;9.50;89.60;;;;;;6094696;23;20020;-82
2022/10/20 07:47:51;;;;;;;1.10;0.85;;;9.50;89.60;;;;;;6093716;23;20022;-82
2022/10/20 07:50:17;;;;;;;1.25;0.90;;;9.50;89.60;;;;;;6070274;23;20459;-82
2022/10/20 07:52:44;;;;;;;0.70;0.70;;;9.60;89.60;;;;;;6090924;23;20020;-82
2022/10/20 07:55:10;;;;;;;1.38;0.60;;;9.60;89.50;;;;;;6074143;23;20044;-81
2022/10/20 07:57:35;;;;;;;0.90;0.70;;;9.60;89.40;;;;;;6097115;23;20097;-82
2022/10/20 08:00:02;;;;;;;0.90;0.60;;;9.70;89.40;;;;;;6124977;23;20010;-82
2022/10/20 08:02:27;;;;;;;1.13;0.60;;;9.70;89.40;;;;;;6098974;23;20061;-82
2022/10/20 08:04:53;;;;;;;0.88;0.75;;;9.70;89.30;;;;;;6099317;23;20018;-82
2022/10/20 08:07:19;;;;;;;0.80;0.70;;;9.80;89.30;;;;;;6125883;23;20002;-80
2022/10/20 08:09:46;;;;;;;0.73;0.70;;;9.90;89.30;;;;;;6125893;23;20032;-82
2022/10/20 08:12:11;;;;;;;0.82;0.80;;;9.90;89.30;;;;;;6096342;23;20014;-82
2022/10/20 08:14:37;;;;;;;1.15;0.80;;;9.90;89.30;;;;;;6126487;23;20449;-82
2022/10/20 08:17:03;;;;;;;0.88;0.70;;;10.00;89.30;;;;;;6101748;23;20013;-83
2022/10/20 08:19:29;;;;;;;0.98;0.80;;;10.00;89.30;;;;;;6101221;23;20002;-82
2022/10/20 08:21:55;;;;;;;1.10;0.80;;;10.00;89.20;;;;;;6095858;23;20061;-82
2022/10/20 08:24:21;;;;;;;1.17;0.82;;;10.10;89.20;;;;;;6098739;23;20010;-82
2022/10/20 08:26:47;;;;;;;1.25;0.70;;;10.20;89.20;;;;;;6069758;23;20015;-82
2022/10/20 08:29:13;;;;;;;0.95;0.80;;;10.30;89.20;;;;;;6097604;23;20015;-82
2022/10/20 08:31:39;;;;;;;0.80;0.65;;;10.30;89.10;;;;;;6098899;23;20010;-82
2022/10/20 08:34:05;;;;;;;1.90;1.00;;;10.30;89.00;;;;;;6128689;23;20343;-82
2022/10/20 08:36:31;;;;;;;1.80;0.70;;;10.50;89.00;;;;;;6101753;23;20096;-82
2022/10/20 08:38:58;;;;;;;0.93;0.68;;;10.50;89.00;;;;;;6053011;23;20025;-82
2022/10/20 08:41:29;;;;;;;1.17;0.90;;;10.70;89.00;;;;;;6100200;23;20014;-82
2022/10/20 08:43:56;;;;;;;0.73;0.70;;;10.70;88.80;;;;;;6129995;23;20057;-82
2022/10/20 08:46:32;;;;;;;0.80;0.80;;;10.80;88.70;;;;;;6129087;23;20037;-80
2022/10/20 08:48:59;;;;;;;1.38;0.93;;;10.90;88.60;;;;;;6100399;23;20026;-82
2022/10/20 08:51:30;;;;;;;1.08;0.80;;;11.00;88.50;;;;;;6101821;23;20013;-82
2022/10/20 08:53:58;;;;;;;0.80;0.80;;;11.10;88.40;;;;;;6099930;23;20017;-82
2022/10/20 08:56:28;;;;;;;1.52;0.80;;;11.10;88.30;;;;;;6101036;23;20045;-80
2022/10/20 08:58:54;;;;;;;0.93;0.77;;;11.20;88.30;;;;;;6099276;23;20142;-81
2022/10/20 09:01:23;;;;;;;1.02;0.70;;;11.20;88.10;;;;;;6103861;23;20494;-80
2022/10/20 09:03:57;;;;;;;2.28;0.90;;;11.30;88.10;;;;;;6102972;23;20069;-82
2022/10/20 09:06:25;;;;;;;1.02;0.93;;;11.40;88.00;;;;;;6102663;23;20089;-80
2022/10/20 09:08:53;;;;;;;1.48;0.85;;;11.50;88.00;;;;;;6104029;23;20014;-81
2022/10/20 09:11:24;;;;;;;1.33;0.90;;;11.60;88.00;;;;;;6097671;23;20006;-80
2022/10/20 09:13:52;;;;;;;1.48;0.90;;;11.70;87.90;;;;;;6071921;23;20006;-82
2022/10/20 09:16:32;;;;;;;1.27;0.88;;;11.70;87.80;;;;;;6073481;23;20015;-82
2022/10/20 09:19:00;;;;;;;1.55;1.10;;;11.80;87.80;;;;;;6099191;23;20458;-81
2022/10/20 09:21:30;;;;;;;2.33;0.93;;;11.90;87.70;;;;;;6109018;23;20027;-81
2022/10/20 09:24:00;;;;;;;2.00;1.10;;;11.90;87.70;;;;;;6037780;23;20019;-81
2022/10/20 09:26:37;;;;;;;1.25;0.85;;;12.00;87.70;;;;;;6067655;23;20014;-82
2022/10/20 09:29:10;;;;;;;1.00;0.77;;;12.10;87.60;;;;;;6068101;23;20109;-82
2022/10/20 09:31:39;;;;;;;1.15;0.77;;;12.20;87.60;;;;;;6041357;23;20015;-81
2022/10/20 09:34:21;;;;;;;1.75;1.10;;;12.30;87.60;;;;;;6043581;23;20019;-81
2022/10/20 09:36:48;;;;;;;0.88;0.80;;;12.40;87.60;;;;;;6065595;23;20348;-81
2022/10/20 09:39:25;;;;;;;1.60;1.00;;;12.30;87.50;;;;;;6042122;23;20042;-81
2022/10/20 09:42:00;;;;;;;1.13;0.88;;;12.30;87.50;;;;;;6041849;23;20036;-81
2022/10/20 09:44:26;;;;;;;1.45;0.90;;;12.50;88.20;;;;;;6066160;23;20015;-81
2022/10/20 09:46:53;;;;;;;1.25;0.90;;;12.50;87.60;;;;;;6064401;23;20086;-81
2022/10/20 09:49:32;;;;;;;1.00;0.90;;;12.50;87.60;;;;;;6041491;23;20108;-81
2022/10/20 09:52:00;;;;;;;1.17;0.80;;;12.50;87.60;;;;;;6066571;23;20019;-81
2022/10/20 09:54:27;;;;;;;0.80;0.70;;;12.70;87.70;;;;;;6084414;23;20010;-81
2022/10/20 09:57:02;;;;;;;1.25;0.70;;;12.70;87.70;;;;;;6125697;23;20021;-81
2022/10/20 09:59:37;;;;;;;0.88;0.80;;;12.70;87.60;;;;;;6102716;23;20014;-81
2022/10/20 10:02:25;;;;;;;0.70;0.70;;;12.80;87.60;;;;;;6102990;23;20027;-81
2022/10/20 10:05:18;;;;;;;1.30;0.90;;;12.90;87.60;;;;;;6107609;23;20009;-81
2022/10/20 10:07:44;;;;;;;1.10;0.90;;;12.90;87.60;;;;;;6017449;23;20051;-81
2022/10/20 10:10:27;;;;;;;0.80;0.80;;;12.90;87.60;;;;;;6017264;23;20039;-81
2022/10/20 10:12:55;;;;;;;0.82;0.80;;;12.90;87.70;;;;;;6016932;23;20019;-81
2022/10/20 10:15:41;;;;;;;0.65;0.65;;;13.00;87.70;;;;;;6041011;23;20035;-81
2022/10/20 10:18:20;;;;;;;1.70;1.05;;;13.00;87.80;;;;;;5991779;23;20031;-81
2022/10/20 10:20:46;;;;;;;0.70;0.70;;;13.00;87.80;;;;;;5969234;23;20108;-82
2022/10/20 10:23:24;;;;;;;1.15;0.77;;;13.00;87.90;;;;;;6037762;23;20022;-81
2022/10/20 10:25:51;;;;;;;1.35;0.90;;;13.10;88.00;;;;;;6036935;23;20018;-81
2022/10/20 10:28:29;;;;;;;1.40;0.98;;;13.10;88.00;;;;;;6010354;23;20050;-82
2022/10/20 10:31:20;;;;;;;1.38;0.75;;;13.10;88.00;;;;;;6014569;23;20106;-82
2022/10/20 10:33:52;;;;;;;1.20;0.80;;;13.10;88.10;;;;;;6039085;23;20019;-82
2022/10/20 10:36:35;;;;;;;1.00;0.90;;;13.10;88.10;;;;;;6036583;23;20459;-83
2022/10/20 10:39:05;;;;;;;1.13;0.80;;;13.20;88.20;;;;;;6065447;23;20025;-82
2022/10/20 10:41:56;;;;;;;0.98;0.85;;;13.20;88.20;;;;;;6048599;23;20006;-82
2022/10/20 10:44:54;;;;;;;0.80;0.70;;;13.30;88.30;;;;;;6096314;23;20327;-83
2022/10/20 10:47:44;;;;;;;0.88;0.80;;;13.30;88.30;;;;;;6095073;23;20010;-82
2022/10/20 10:50:28;;;;;;;0.77;0.77;;;13.40;88.30;;;;;;6074561;23;20057;-82
2022/10/20 10:53:15;;;;;;;0.68;0.60;;;13.30;88.30;;;;;;6095572;23;20014;-82
2022/10/20 10:56:07;;;;;;;1.45;1.00;;;13.40;88.30;;;;;;6074866;23;20020;-83
2022/10/20 10:58:45;;;;;;;0.98;0.80;;;13.50;88.30;;;;;;6124150;23;20014;-83
2022/10/20 11:01:36;;;;;;;2.33;1.13;;;13.50;88.20;;;;;;6096820;23;20061;-83
2022/10/20 11:04:35;;;;;;;1.10;0.57;;;13.60;88.20;;;;;;6128678;23;20009;-83
2022/10/20 11:07:15;;;;;;;0.98;0.85;;;13.60;88.20;;;;;;6127272;23;20020;-83
2022/10/20 11:10:06;;;;;;;1.13;1.02;;;13.70;88.20;;;;;;6102113;23;20013;-82
2022/10/20 11:12:59;;;;;;;1.13;0.90;;;13.70;88.30;;;;;;6126420;23;20006;-82
2022/10/20 11:15:50;;;;;;;1.20;1.00;;;13.70;88.30;;;;;;6076910;23;20018;-82
2022/10/20 11:18:36;;;;;;;;;;;13.70;88.40;;;;;;6107421;23;20014;-83
2022/10/20 11:21:36;;;;;;;1.15;0.95;;;13.70;88.30;;;;;;6125909;23;20381;-82
2022/10/20 11:24:27;;;;;;;1.00;0.90;;;13.80;88.40;;;;;;6122750;23;20076;-83
2022/10/20 11:27:00;;;;;;;0.98;0.68;;;13.80;88.50;;;;;;6098462;23;20022;-82
2022/10/20 11:29:31;;;;;;;2.70;1.00;;;13.70;88.60;;;;;;6092421;23;20014;-82
2022/10/20 11:32:21;;;;;;;1.23;0.85;;;13.70;88.70;;;;;;6095200;23;20017;-82
2022/10/20 11:35:00;;;;;;;1.50;1.00;;;13.70;88.80;;;;;;6070674;23;20015;-82
2022/10/20 11:37:37;;;;;;;1.23;0.95;;;13.60;88.80;;;;;;6092519;23;20056;-81
2022/10/20 11:40:21;;;;;;;1.10;0.80;;;13.70;88.90;;;;;;6048871;23;20003;-82
2022/10/20 11:43:11;;;;;;;1.30;0.90;;;13.70;89.10;;;;;;6095189;23;20006;-82
2022/10/20 11:45:50;;;;;;;1.30;1.00;;;13.80;89.20;;;;;;6093418;23;20328;-82
2022/10/20 11:48:30;;;;;;;0.93;0.90;;;13.60;89.20;;;;;;6076544;23;20088;-82
2022/10/20 11:51:29;;;;;;;1.30;0.90;;;13.70;89.40;;;;;;6099489;23;20461;-81
2022/10/20 11:54:28;;;;;;;0.88;0.70;;;13.70;89.40;;;;;;6078962;23;20064;-81
2022/10/20 11:57:19;;;;;;;0.85;0.85;;;13.60;89.50;;;;;;6094933;23;20070;-81
2022/10/20 12:00:09;;;;;;;1.40;0.80;;;13.60;89.50;;;;;;6098682;23;20024;-81
2022/10/20 12:03:09;;;;;;;1.63;1.00;;;13.60;89.60;;;;;;6102577;23;20017;-79
2022/10/20 12:06:15;;;;;;;1.27;0.93;;;13.60;89.80;;;;;;6098739;23;20101;-78
2022/10/20 12:09:16;;;;;;;1.63;1.20;;;13.60;89.90;;;;;;6103741;23;20017;-79
2022/10/20 12:11:56;;;;;;;0.90;0.77;;;13.60;90.00;;;;;;6071930;23;20530;-78
2022/10/20 12:14:36;;;;;;;1.00;0.88;;;13.60;89.90;;;;;;6099286;23;20006;-79
2022/10/20 12:17:15;;;;;;;1.98;1.10;;;13.60;90.00;;;;;;6047333;23;20018;-78
2022/10/20 12:19:41;;;;;;;1.10;0.80;;;13.60;90.00;;;;;;6094198;23;20006;-78
2022/10/20 12:22:42;;;;;;;1.63;1.17;;;13.70;90.00;;;;;;6069878;23;20073;-80
2022/10/20 12:25:21;;;;;;;2.30;0.80;;;13.60;90.00;;;;;;6095144;23;20093;-80
2022/10/20 12:28:21;;;;;;;1.38;0.90;;;13.70;90.00;;;;;;6094080;23;20010;-80
2022/10/20 12:30:58;;;;;;;1.57;1.20;;;13.70;90.10;;;;;;6094186;23;20081;-80
2022/10/20 12:34:02;;;;;;;1.00;0.90;;;13.70;90.10;;;;;;6070551;23;20011;-80
2022/10/20 12:36:33;;;;;;;1.42;0.90;;;13.60;90.10;;;;;;6092325;23;20545;-81
2022/10/20 12:39:11;;;;;;;;;;;13.60;90.10;;;;;;6069031;23;20085;-81
2022/10/20 12:41:44;;;;;;;1.05;0.82;;;13.70;90.10;;;;;;6095744;23;20255;-81
2022/10/20 12:44:16;;;;;;;1.08;0.68;;;13.70;90.10;;;;;;6046368;23;20064;-81
2022/10/20 12:47:02;;;;;;;0.85;0.85;;;13.60;90.20;;;;;;6095777;23;20014;-81
2022/10/20 12:49:34;;;;;;;2.33;1.20;;;13.70;90.20;;;;;;6070909;23;20452;-81
2022/10/20 12:52:01;;;;;;;0.93;0.80;;;13.70;90.20;;;;;;6088360;23;20426;-81
2022/10/20 12:54:34;;;;;;;1.02;0.90;;;13.80;90.20;;;;;;6090947;23;20014;-82
2022/10/20 12:57:04;;;;;;;1.20;0.90;;;13.90;90.20;;;;;;6044665;23;20019;-81
2022/10/20 12:59:37;;;;;;;1.37;1.17;;;13.90;90.20;;;;;;6097008;23;20033;-80
2022/10/20 13:02:29;;;;;;;0.85;0.82;;;14.00;90.20;;;;;;6096097;23;20246;-82
2022/10/20 13:04:59;;;;;;;1.50;1.00;;;14.00;90.20;;;;;;6071369;23;20145;-81
2022/10/20 13:08:03;;;;;;;1.65;1.15;;;14.00;90.10;;;;;;6093247;23;20027;-80
2022/10/20 13:10:33;;;;;;;1.52;1.00;;;14.00;90.10;;;;;;6095727;23;20409;-80
2022/10/20 13:13:38;;;;;;;1.02;0.93;;;13.90;90.10;;;;;;6091122;23;20038;-80
2022/10/20 13:16:13;;;;;;;1.65;0.98;;;14.00;90.20;;;;;;6075797;23;20038;-81
2022/10/20 13:18:44;;;;;;;1.23;0.90;;;14.00;90.20;;;;;;6069362;23;20010;-81